createdAt,value
2019-05-26T00:00:59.360Z,10.64
2019-05-26T00:03:27.866Z,10.61
2019-05-26T00:05:56.473Z,10.60
2019-05-26T00:08:24.942Z,10.61
2019-05-26T00:10:53.486Z,10.62
2019-05-26T00:13:21.974Z,10.62
2019-05-26T00:15:50.791Z,10.63
2019-05-26T00:18:19.485Z,10.63
2019-05-26T00:20:48.142Z,10.61
2019-05-26T00:23:16.821Z,10.58
2019-05-26T00:25:45.380Z,10.53
2019-05-26T00:28:13.918Z,10.43
2019-05-26T00:30:42.529Z,10.36
2019-05-26T00:33:11.015Z,10.34
2019-05-26T00:35:39.608Z,10.29
2019-05-26T00:38:08.201Z,10.27
2019-05-26T00:40:36.839Z,10.26
2019-05-26T00:43:05.453Z,10.23
2019-05-26T00:45:34.103Z,10.23
2019-05-26T00:48:03.079Z,10.20
2019-05-26T00:50:31.700Z,10.14
2019-05-26T00:53:00.350Z,10.14
2019-05-26T00:55:28.996Z,10.14
2019-05-26T00:57:57.554Z,10.16
2019-05-26T01:00:40.581Z,10.18
2019-05-26T01:03:10.003Z,10.15
2019-05-26T01:05:38.660Z,10.14
2019-05-26T01:08:08.274Z,10.10
2019-05-26T01:10:37.363Z,10.04
2019-05-26T01:13:07.167Z,10.01
2019-05-26T01:15:35.776Z,9.97
2019-05-26T01:18:05.483Z,9.96
2019-05-26T01:20:34.048Z,9.96
2019-05-26T01:23:02.628Z,9.94
2019-05-26T01:25:31.345Z,9.83
2019-05-26T01:27:59.964Z,9.80
2019-05-26T01:30:36.919Z,9.78
2019-05-26T01:33:06.841Z,9.78
2019-05-26T01:35:38.720Z,9.72
2019-05-26T01:38:22.314Z,9.67
2019-05-26T01:40:41.457Z,9.67
2019-05-26T01:43:10.333Z,9.64
2019-05-26T01:45:39.084Z,9.62
2019-05-26T01:48:08.266Z,9.63
2019-05-26T01:50:37.705Z,9.64
2019-05-26T01:53:06.987Z,9.62
2019-05-26T01:55:35.900Z,9.60
2019-05-26T01:58:05.318Z,9.58
2019-05-26T02:00:37.161Z,9.56
2019-05-26T02:03:06.171Z,9.61
2019-05-26T02:05:34.855Z,9.65
2019-05-26T02:08:03.726Z,9.69
2019-05-26T02:10:32.392Z,9.72
2019-05-26T02:13:00.871Z,9.78
2019-05-26T02:15:31.331Z,9.82
2019-05-26T02:17:59.939Z,9.86
2019-05-26T02:20:28.547Z,9.88
2019-05-26T02:22:57.083Z,9.85
2019-05-26T02:25:26.370Z,9.86
2019-05-26T02:27:54.913Z,9.86
2019-05-26T02:30:24.662Z,9.86
2019-05-26T02:32:53.204Z,9.91
2019-05-26T02:35:23.524Z,9.95
2019-05-26T02:37:52.086Z,9.99
2019-05-26T02:40:21.808Z,10.03
2019-05-26T02:42:50.448Z,10.04
2019-05-26T02:45:20.385Z,10.06
2019-05-26T02:47:49.107Z,10.07
2019-05-26T02:50:19.027Z,10.08
2019-05-26T02:52:47.577Z,10.09
2019-05-26T02:55:16.855Z,10.10
2019-05-26T02:57:45.458Z,10.10
2019-05-26T03:00:17.001Z,10.08
2019-05-26T03:02:46.055Z,10.04
2019-05-26T03:05:14.750Z,10.01
2019-05-26T03:07:44.032Z,9.98
2019-05-26T03:10:15.323Z,9.96
2019-05-26T03:12:44.373Z,9.95
2019-05-26T03:15:15.716Z,9.95
2019-05-26T03:17:45.817Z,9.96
2019-05-26T03:20:15.184Z,10.02
2019-05-26T03:22:45.560Z,10.09
2019-05-26T03:25:14.552Z,10.16
2019-05-26T03:27:43.185Z,10.19
2019-05-26T03:30:11.947Z,10.23
2019-05-26T03:32:40.550Z,10.26
2019-05-26T03:35:09.750Z,10.29
2019-05-26T03:37:38.551Z,10.30
2019-05-26T03:40:10.439Z,10.34
2019-05-26T03:42:39.100Z,10.37
2019-05-26T03:45:08.516Z,10.40
2019-05-26T03:47:37.066Z,10.43
2019-05-26T03:50:07.712Z,10.44
2019-05-26T03:52:36.311Z,10.45
2019-05-26T03:55:06.938Z,10.43
2019-05-26T03:57:35.489Z,10.41
2019-05-26T04:00:06.677Z,10.38
2019-05-26T04:02:35.349Z,10.38
2019-05-26T04:05:05.574Z,10.41
2019-05-26T04:07:34.227Z,10.44
2019-05-26T04:10:06.199Z,10.49
2019-05-26T04:12:35.294Z,10.53
2019-05-26T04:15:05.717Z,10.56
2019-05-26T04:17:34.328Z,10.61
2019-05-26T04:20:02.958Z,10.65
2019-05-26T04:22:31.424Z,10.69
2019-05-26T04:24:59.978Z,10.75
2019-05-26T04:27:28.515Z,10.82
2019-05-26T04:29:57.049Z,10.90
2019-05-26T04:32:25.662Z,11.00
2019-05-26T04:34:54.232Z,11.08
2019-05-26T04:37:23.039Z,11.14
2019-05-26T04:39:51.557Z,11.18
2019-05-26T04:42:20.364Z,11.25
2019-05-26T04:44:49.681Z,11.33
2019-05-26T04:47:18.289Z,11.39
2019-05-26T04:49:48.553Z,11.47
2019-05-26T04:52:17.037Z,11.59
2019-05-26T04:54:45.611Z,11.66
2019-05-26T04:57:14.349Z,11.76
2019-05-26T04:59:45.523Z,11.85
2019-05-26T05:02:14.382Z,11.97
2019-05-26T05:04:43.001Z,12.07
2019-05-26T05:07:11.552Z,12.15
2019-05-26T05:09:40.102Z,12.22
2019-05-26T05:12:08.654Z,12.26
2019-05-26T05:14:37.264Z,12.31
2019-05-26T05:17:05.908Z,12.32
2019-05-26T05:19:34.992Z,12.36
2019-05-26T05:22:03.634Z,12.45
2019-05-26T05:24:32.170Z,12.52
2019-05-26T05:27:00.812Z,12.61
2019-05-26T05:29:29.277Z,12.77
2019-05-26T05:31:57.844Z,12.84
2019-05-26T05:34:26.361Z,12.86
2019-05-26T05:36:55.007Z,12.91
2019-05-26T05:39:23.620Z,13.05
2019-05-26T05:41:52.200Z,13.17
2019-05-26T05:44:22.373Z,13.27
2019-05-26T05:46:50.980Z,13.35
2019-05-26T05:49:19.472Z,13.42
2019-05-26T05:51:48.173Z,13.49
2019-05-26T05:54:16.743Z,13.53
2019-05-26T05:56:45.296Z,13.54
2019-05-26T05:59:13.776Z,13.67
2019-05-26T06:01:42.416Z,13.80
2019-05-26T06:04:11.080Z,13.92
2019-05-26T06:06:39.813Z,14.16
2019-05-26T06:09:08.601Z,14.32
2019-05-26T06:11:37.081Z,14.40
2019-05-26T06:14:05.994Z,14.43
2019-05-26T06:16:34.565Z,14.52
2019-05-26T06:19:03.123Z,14.76
2019-05-26T06:21:31.727Z,15.01
2019-05-26T06:24:02.711Z,15.21
2019-05-26T06:26:31.333Z,15.35
2019-05-26T06:28:59.804Z,15.40
2019-05-26T06:31:28.713Z,15.43
2019-05-26T06:34:00.061Z,15.49
2019-05-26T06:36:28.612Z,15.64
2019-05-26T06:38:57.255Z,15.93
2019-05-26T06:41:33.458Z,16.24
2019-05-26T06:43:56.071Z,16.52
2019-05-26T06:46:24.681Z,16.85
2019-05-26T06:48:53.295Z,17.16
2019-05-26T06:51:23.259Z,17.47
2019-05-26T06:53:53.997Z,17.78
2019-05-26T06:56:22.344Z,18.11
2019-05-26T06:58:50.990Z,18.40
2019-05-26T07:01:19.636Z,18.61
2019-05-26T07:03:48.413Z,18.90
2019-05-26T07:06:16.983Z,19.16
2019-05-26T07:08:45.865Z,19.47
2019-05-26T07:11:14.448Z,19.71
2019-05-26T07:13:43.062Z,19.96
2019-05-26T07:16:11.540Z,20.22
2019-05-26T07:18:40.081Z,20.48
2019-05-26T07:21:08.697Z,20.73
2019-05-26T07:23:37.338Z,20.91
2019-05-26T07:26:05.989Z,21.11
2019-05-26T07:28:34.461Z,21.39
2019-05-26T07:31:03.107Z,21.64
2019-05-26T07:33:31.712Z,21.90
2019-05-26T07:36:00.362Z,22.15
2019-05-26T07:38:28.974Z,22.30
2019-05-26T07:40:57.608Z,22.45
2019-05-26T07:43:28.165Z,22.64
2019-05-26T07:45:56.374Z,22.75
2019-05-26T07:48:24.976Z,22.88
2019-05-26T07:50:53.538Z,22.96
2019-05-26T07:53:22.110Z,23.03
2019-05-26T07:55:50.651Z,23.03
2019-05-26T07:58:19.286Z,23.15
2019-05-26T08:00:47.845Z,23.32
2019-05-26T08:03:16.488Z,23.54
2019-05-26T08:05:45.083Z,23.72
2019-05-26T08:08:13.865Z,23.89
2019-05-26T08:10:42.486Z,24.12
2019-05-26T08:13:11.195Z,24.21
2019-05-26T08:15:39.739Z,24.23
2019-05-26T08:18:08.381Z,24.33
2019-05-26T08:20:37.083Z,24.32
2019-05-26T08:23:05.692Z,24.25
2019-05-26T08:25:34.571Z,24.20
2019-05-26T08:28:03.107Z,24.16
2019-05-26T08:30:31.719Z,24.27
2019-05-26T08:33:00.358Z,24.47
2019-05-26T08:35:29.234Z,24.70
2019-05-26T08:37:57.842Z,24.93
2019-05-26T08:40:26.648Z,25.14
2019-05-26T08:42:55.265Z,25.34
2019-05-26T08:45:23.853Z,25.54
2019-05-26T08:47:53.065Z,25.76
2019-05-26T08:50:23.189Z,25.99
2019-05-26T08:52:51.842Z,26.21
2019-05-26T08:55:21.250Z,26.42
2019-05-26T08:57:49.785Z,26.49
2019-05-26T09:00:19.191Z,26.61
2019-05-26T09:02:52.409Z,26.81
2019-05-26T09:05:21.826Z,27.03
2019-05-26T09:07:50.487Z,27.15
2019-05-26T09:10:20.119Z,27.40
2019-05-26T09:13:00.186Z,27.62
2019-05-26T09:15:19.652Z,27.77
2019-05-26T09:17:48.265Z,27.90
2019-05-26T09:20:18.847Z,28.07
2019-05-26T09:22:47.475Z,28.22
2019-05-26T09:25:16.474Z,28.39
2019-05-26T09:27:45.842Z,28.56
2019-05-26T09:30:14.506Z,28.61
2019-05-26T09:32:43.137Z,28.72
2019-05-26T09:35:12.140Z,28.80
2019-05-26T09:37:40.800Z,28.69
2019-05-26T09:40:10.753Z,28.69
2019-05-26T09:42:39.356Z,28.81
2019-05-26T09:45:09.134Z,28.86
2019-05-26T09:47:37.744Z,28.22
2019-05-26T09:50:07.360Z,28.05
2019-05-26T09:52:36.469Z,27.97
2019-05-26T09:55:07.158Z,27.88
2019-05-26T09:57:35.799Z,27.94
2019-05-26T10:00:07.094Z,27.68
2019-05-26T10:02:35.741Z,27.75
2019-05-26T10:05:05.843Z,27.94
2019-05-26T10:07:34.520Z,28.26
2019-05-26T10:10:04.551Z,28.43
2019-05-26T10:12:33.159Z,28.57
2019-05-26T10:15:01.758Z,28.49
2019-05-26T10:17:30.271Z,28.13
2019-05-26T10:19:59.181Z,28.01
2019-05-26T10:22:27.793Z,28.20
2019-05-26T10:24:56.327Z,28.37
2019-05-26T10:27:24.933Z,28.43
2019-05-26T10:29:53.471Z,28.35
2019-05-26T10:32:21.936Z,28.31
2019-05-26T10:34:51.340Z,28.27
2019-05-26T10:37:19.776Z,28.30
2019-05-26T10:39:48.435Z,28.46
2019-05-26T10:42:17.373Z,28.48
2019-05-26T10:44:45.840Z,28.35
2019-05-26T10:47:14.576Z,27.99
2019-05-26T10:49:43.191Z,27.76
2019-05-26T10:52:11.692Z,27.72
2019-05-26T10:54:40.295Z,27.67
2019-05-26T10:57:09.241Z,27.68
2019-05-26T10:59:37.704Z,27.47
2019-05-26T11:02:06.453Z,27.21
2019-05-26T11:04:35.177Z,27.10
2019-05-26T11:07:04.157Z,27.06
2019-05-26T11:09:32.770Z,27.17
2019-05-26T11:12:01.384Z,27.49
2019-05-26T11:14:32.031Z,27.78
2019-05-26T11:17:00.329Z,27.90
2019-05-26T11:19:28.941Z,27.65
2019-05-26T11:21:57.456Z,27.33
2019-05-26T11:24:25.919Z,27.03
2019-05-26T11:26:54.583Z,26.70
2019-05-26T11:29:24.785Z,26.30
2019-05-26T11:31:53.402Z,25.88
2019-05-26T11:34:21.938Z,25.47
2019-05-26T11:36:50.606Z,25.18
2019-05-26T11:39:20.794Z,24.90
2019-05-26T11:41:54.973Z,24.54
2019-05-26T11:44:19.538Z,24.32
2019-05-26T11:46:48.131Z,24.04
2019-05-26T11:49:16.689Z,23.80
2019-05-26T11:51:45.353Z,23.55
2019-05-26T11:54:13.963Z,23.47
2019-05-26T11:56:42.507Z,23.38
2019-05-26T11:59:13.539Z,23.22
2019-05-26T12:01:42.428Z,23.14
2019-05-26T12:04:11.023Z,22.99
2019-05-26T12:06:39.573Z,22.95
2019-05-26T12:09:09.507Z,23.00
2019-05-26T12:11:38.236Z,23.07
2019-05-26T12:14:06.857Z,23.10
2019-05-26T12:16:35.543Z,23.10
2019-05-26T12:19:04.223Z,23.12
2019-05-26T12:21:32.642Z,23.12
2019-05-26T12:24:01.217Z,23.14
2019-05-26T12:26:29.753Z,23.12
2019-05-26T12:28:58.418Z,23.14
2019-05-26T12:31:27.023Z,23.18
2019-05-26T12:33:55.476Z,23.24
2019-05-26T12:36:24.086Z,23.19
2019-05-26T12:38:52.644Z,23.16
2019-05-26T12:41:22.594Z,23.16
2019-05-26T12:43:51.233Z,23.19
2019-05-26T12:46:19.841Z,23.17
2019-05-26T12:48:48.549Z,23.08
2019-05-26T12:51:17.442Z,23.09
2019-05-26T12:53:46.021Z,23.22
2019-05-26T12:56:15.273Z,23.35
2019-05-26T12:58:43.893Z,23.42
2019-05-26T13:01:13.927Z,23.47
2019-05-26T13:03:44.640Z,23.49
2019-05-26T13:06:13.246Z,23.49
2019-05-26T13:08:41.719Z,23.46
2019-05-26T13:11:10.271Z,23.45
2019-05-26T13:13:38.893Z,23.50
2019-05-26T13:16:07.659Z,23.50
2019-05-26T13:18:36.193Z,23.50
2019-05-26T13:21:04.997Z,23.50
2019-05-26T13:23:33.530Z,23.53
2019-05-26T13:26:02.097Z,23.52
2019-05-26T13:28:30.635Z,23.51
2019-05-26T13:30:59.452Z,23.47
2019-05-26T13:33:27.912Z,23.42
2019-05-26T13:35:56.446Z,23.35
2019-05-26T13:38:25.066Z,23.25
2019-05-26T13:40:53.710Z,23.19
2019-05-26T13:43:22.329Z,23.13
2019-05-26T13:45:50.870Z,23.06
2019-05-26T13:48:19.408Z,23.02
2019-05-26T13:50:47.946Z,22.98
2019-05-26T13:53:16.574Z,22.94
2019-05-26T13:55:45.043Z,22.91
2019-05-26T13:58:13.607Z,22.89
2019-05-26T14:00:42.135Z,22.89
2019-05-26T14:03:10.871Z,22.88
2019-05-26T14:05:39.473Z,22.89
2019-05-26T14:08:08.125Z,22.89
2019-05-26T14:10:39.998Z,22.85
2019-05-26T14:13:08.933Z,22.80
2019-05-26T14:15:39.441Z,22.74
2019-05-26T14:18:08.584Z,22.68
2019-05-26T14:20:41.810Z,22.61
2019-05-26T14:23:13.046Z,22.56
2019-05-26T14:25:41.686Z,22.54
2019-05-26T14:28:11.760Z,22.52
2019-05-26T14:30:40.414Z,22.50
2019-05-26T14:33:09.023Z,22.49
2019-05-26T14:35:37.788Z,22.46
2019-05-26T14:38:06.522Z,22.45
2019-05-26T14:40:35.143Z,22.42
2019-05-26T14:43:03.683Z,22.39
2019-05-26T14:45:32.385Z,22.38
2019-05-26T14:48:00.986Z,22.37
2019-05-26T14:50:29.613Z,22.39
2019-05-26T14:52:58.418Z,22.37
2019-05-26T14:55:28.899Z,22.36
2019-05-26T14:58:13.858Z,22.34
2019-05-26T15:00:28.153Z,22.34
2019-05-26T15:02:56.913Z,22.31
2019-05-26T15:05:25.523Z,22.34
2019-05-26T15:07:54.166Z,22.34
2019-05-26T15:10:22.927Z,22.29
2019-05-26T15:12:51.452Z,22.20
2019-05-26T15:15:20.271Z,22.04
2019-05-26T15:17:48.916Z,21.89
2019-05-26T15:20:17.956Z,21.74
2019-05-26T15:22:46.425Z,21.57
2019-05-26T15:25:16.923Z,21.44
2019-05-26T15:27:46.679Z,21.38
2019-05-26T15:30:16.626Z,21.32
2019-05-26T15:32:45.237Z,21.28
2019-05-26T15:35:14.244Z,21.30
2019-05-26T15:37:42.918Z,21.31
2019-05-26T15:40:11.828Z,21.30
2019-05-26T15:42:40.367Z,21.25
2019-05-26T15:45:09.981Z,21.22
2019-05-26T15:47:38.657Z,21.17
2019-05-26T15:50:09.245Z,21.12
2019-05-26T15:52:37.783Z,21.00
2019-05-26T15:55:06.856Z,20.86
2019-05-26T15:57:35.476Z,20.75
2019-05-26T16:00:09.422Z,20.68
2019-05-26T16:02:37.945Z,20.64
2019-05-26T16:05:07.354Z,20.61
2019-05-26T16:07:35.943Z,20.56
2019-05-26T16:10:09.038Z,20.50
2019-05-26T16:12:37.644Z,20.45
2019-05-26T16:15:08.328Z,20.42
2019-05-26T16:17:38.963Z,20.38
2019-05-26T16:20:11.147Z,20.31
2019-05-26T16:22:39.962Z,20.23
2019-05-26T16:25:10.067Z,20.19
2019-05-26T16:27:38.630Z,20.13
2019-05-26T16:30:10.792Z,20.09
2019-05-26T16:32:39.414Z,20.04
2019-05-26T16:35:08.064Z,19.99
2019-05-26T16:37:36.564Z,19.93
2019-05-26T16:40:06.929Z,19.87
2019-05-26T16:42:35.563Z,19.83
2019-05-26T16:45:06.644Z,19.77
2019-05-26T16:47:35.361Z,19.72
2019-05-26T16:50:08.265Z,19.66
2019-05-26T16:52:37.245Z,19.59
2019-05-26T16:55:07.155Z,19.54
2019-05-26T16:57:35.995Z,19.41
2019-05-26T17:00:06.806Z,19.34
2019-05-26T17:02:35.351Z,19.29
2019-05-26T17:05:05.023Z,19.22
2019-05-26T17:07:33.632Z,19.14
2019-05-26T17:10:02.233Z,19.03
2019-05-26T17:12:30.802Z,18.95
2019-05-26T17:14:59.338Z,18.93
2019-05-26T17:17:28.089Z,18.90
2019-05-26T17:19:56.701Z,18.81
2019-05-26T17:22:26.976Z,18.71
2019-05-26T17:24:55.453Z,18.65
2019-05-26T17:27:24.060Z,18.59
2019-05-26T17:29:52.694Z,18.57
2019-05-26T17:32:21.313Z,18.56
2019-05-26T17:34:49.823Z,18.53
2019-05-26T17:37:18.521Z,18.47
2019-05-26T17:39:47.097Z,18.42
2019-05-26T17:42:15.627Z,18.38
2019-05-26T17:44:44.246Z,18.37
2019-05-26T17:47:12.709Z,18.32
2019-05-26T17:49:41.372Z,18.28
2019-05-26T17:52:10.117Z,18.22
2019-05-26T17:54:38.677Z,18.18
2019-05-26T17:57:07.676Z,18.15
2019-05-26T17:59:36.284Z,18.10
2019-05-26T18:02:05.253Z,18.01
2019-05-26T18:04:33.801Z,17.97
2019-05-26T18:07:02.415Z,17.95
2019-05-26T18:09:43.252Z,17.89
2019-05-26T18:12:01.529Z,17.86
2019-05-26T18:14:30.143Z,17.77
2019-05-26T18:16:58.850Z,17.68
2019-05-26T18:19:30.008Z,17.66
2019-05-26T18:21:58.797Z,17.61
2019-05-26T18:24:27.413Z,17.56
2019-05-26T18:26:56.056Z,17.49
2019-05-26T18:29:24.599Z,17.43
2019-05-26T18:31:54.356Z,17.36
2019-05-26T18:34:22.981Z,17.30
2019-05-26T18:36:51.520Z,17.25
2019-05-26T18:39:20.171Z,17.23
2019-05-26T18:41:48.752Z,17.19
2019-05-26T18:44:17.286Z,17.14
2019-05-26T18:46:45.930Z,17.11
2019-05-26T18:49:14.561Z,17.06
2019-05-26T18:51:43.212Z,16.98
2019-05-26T18:54:11.985Z,16.92
2019-05-26T18:56:40.524Z,16.88
2019-05-26T18:59:09.095Z,16.79
2019-05-26T19:01:37.753Z,16.69
2019-05-26T19:04:06.397Z,16.63
2019-05-26T19:06:35.015Z,16.61
2019-05-26T19:09:05.094Z,16.56
2019-05-26T19:11:33.683Z,16.53
2019-05-26T19:14:02.344Z,16.47
2019-05-26T19:16:30.891Z,16.45
2019-05-26T19:18:59.440Z,16.39
2019-05-26T19:21:28.331Z,16.34
2019-05-26T19:23:56.878Z,16.35
2019-05-26T19:26:25.440Z,16.35
2019-05-26T19:28:53.991Z,16.34
2019-05-26T19:31:22.540Z,16.34
2019-05-26T19:33:51.359Z,16.28
2019-05-26T19:36:20.125Z,16.22
2019-05-26T19:38:48.603Z,16.11
2019-05-26T19:41:17.240Z,16.04
2019-05-26T19:43:45.769Z,15.97
2019-05-26T19:46:14.382Z,15.92
2019-05-26T19:48:42.993Z,15.87
2019-05-26T19:51:11.539Z,15.84
2019-05-26T19:53:40.086Z,15.81
2019-05-26T19:56:08.699Z,15.78
2019-05-26T19:58:37.318Z,15.70
2019-05-26T20:01:05.981Z,15.62
2019-05-26T20:03:34.588Z,15.56
2019-05-26T20:06:03.403Z,15.55
2019-05-26T20:08:32.024Z,15.49
2019-05-26T20:11:00.639Z,15.42
2019-05-26T20:13:29.199Z,15.36
2019-05-26T20:15:57.922Z,15.35
2019-05-26T20:18:26.479Z,15.30
2019-05-26T20:20:55.175Z,15.26
2019-05-26T20:23:23.797Z,15.19
2019-05-26T20:25:54.015Z,15.17
2019-05-26T20:28:22.558Z,15.12
2019-05-26T20:30:51.105Z,15.07
2019-05-26T20:33:19.731Z,15.02
2019-05-26T20:35:48.226Z,14.97
2019-05-26T20:38:16.775Z,14.91
2019-05-26T20:40:46.063Z,14.84
2019-05-26T20:43:14.671Z,14.81
2019-05-26T20:45:43.308Z,14.79
2019-05-26T20:48:11.867Z,14.79
2019-05-26T20:50:40.518Z,14.75
2019-05-26T20:53:08.998Z,14.72
2019-05-26T20:55:37.655Z,14.69
2019-05-26T20:58:06.290Z,14.70
2019-05-26T21:00:34.850Z,14.70
2019-05-26T21:03:03.494Z,14.71
2019-05-26T21:05:32.036Z,14.69
2019-05-26T21:08:00.670Z,14.64
2019-05-26T21:10:29.217Z,14.61
2019-05-26T21:12:58.029Z,14.54
2019-05-26T21:15:26.594Z,14.48
2019-05-26T21:17:55.937Z,14.45
2019-05-26T21:20:24.553Z,14.39
2019-05-26T21:22:53.097Z,14.33
2019-05-26T21:25:21.830Z,14.31
2019-05-26T21:27:50.513Z,14.27
2019-05-26T21:30:19.849Z,14.26
2019-05-26T21:32:48.529Z,14.23
2019-05-26T21:35:17.370Z,14.19
2019-05-26T21:37:45.951Z,14.12
2019-05-26T21:40:14.869Z,14.05
2019-05-26T21:42:44.945Z,13.97
2019-05-26T21:45:13.880Z,13.97
2019-05-26T21:47:42.502Z,13.97
2019-05-26T21:50:12.616Z,13.91
2019-05-26T21:52:42.650Z,13.85
2019-05-26T21:55:14.280Z,13.79
2019-05-26T21:57:42.887Z,13.79
2019-05-26T22:00:13.828Z,13.81
2019-05-26T22:02:42.448Z,13.77
2019-05-26T22:05:12.025Z,13.76
2019-05-26T22:07:41.539Z,13.73
2019-05-26T22:10:10.080Z,13.71
2019-05-26T22:12:38.646Z,13.68
2019-05-26T22:15:08.616Z,13.59
2019-05-26T22:17:37.191Z,13.52
2019-05-26T22:20:07.466Z,13.48
2019-05-26T22:22:36.094Z,13.41
2019-05-26T22:25:06.957Z,13.37
2019-05-26T22:27:35.606Z,13.32
2019-05-26T22:30:05.913Z,13.26
2019-05-26T22:32:34.547Z,13.20
2019-05-26T22:35:03.051Z,13.16
2019-05-26T22:37:31.649Z,13.11
2019-05-26T22:40:01.656Z,13.09
2019-05-26T22:42:30.542Z,13.03
2019-05-26T22:44:59.380Z,13.02
2019-05-26T22:47:27.878Z,13.01
2019-05-26T22:49:58.142Z,13.00
2019-05-26T22:52:26.644Z,12.97
2019-05-26T22:54:55.260Z,12.94
2019-05-26T22:57:23.779Z,12.94
2019-05-26T22:59:52.350Z,12.94
2019-05-26T23:02:20.965Z,12.89
2019-05-26T23:04:49.580Z,12.83
2019-05-26T23:07:18.124Z,12.77
2019-05-26T23:09:46.703Z,12.73
2019-05-26T23:12:15.414Z,12.64
2019-05-26T23:14:43.893Z,12.57
2019-05-26T23:17:14.150Z,12.52
2019-05-26T23:19:42.619Z,12.50
2019-05-26T23:22:11.160Z,12.50
2019-05-26T23:24:39.667Z,12.53
2019-05-26T23:27:08.286Z,12.50
2019-05-26T23:29:36.827Z,12.44
2019-05-26T23:32:05.465Z,12.43
2019-05-26T23:34:33.941Z,12.42
2019-05-26T23:37:02.647Z,12.40
2019-05-26T23:39:31.257Z,12.38
2019-05-26T23:42:02.746Z,12.32
2019-05-26T23:44:31.282Z,12.26
2019-05-26T23:46:59.918Z,12.30
2019-05-26T23:49:30.137Z,12.30
2019-05-26T23:51:58.689Z,12.32
2019-05-26T23:54:27.225Z,12.31
2019-05-26T23:56:55.918Z,12.26
2019-05-26T23:59:24.530Z,12.20
